LBBGLBWN

Guest
Details From LBBG - Burgas
To LBWN - Varna
Flight Number -
Tags Routegen Generated
Created
Modified
Stats Distance 53 nm / 98 km
Max Altitude 200 ft / 61 m
Waypoints 5
Social Downloads 12
Likes 0
Share

Download

Looking for another format? Having issues loading an existing format? Contact us
Advertisement - Login to hide

Notes

Departing runway 4 LBBG. Arriving runway 9 LBWN.

Route

LBBG +42.63_+027.60 +42.92_+027.82 +43.21_+028.04 LBWN

ID Type Via Altitude (ft/m) Position (lat/lon) Dist (leg/tot) Name
O LBBG APT - 200 / 61 42.58043 / 27.52888 - / 0 nm
+42.63_+027.60 DME - 200 / 61 42.63221 / 27.59757 4 / 4 nm
+42.92_+027.82 DME - 200 / 61 42.92235 / 27.81763 19 / 24 nm
+43.21_+028.04 DME - 200 / 61 43.21249 / 28.03769 19 / 44 nm
O LBWN APT - 0 / 0 43.23064 / 27.84064 8 / 52 nm

Altitude Profile

Advertisement - Login to hide

LBBG

Details ICAO LBBG (BOJ)
Name Burgas
Region Bulgaria
Timezone Europe/Sofia (UTC+2.0)
Stats Elevation 134 ft / 41 m (AMSL)
Location 42.570100° 27.515300°
Runways 1
Magnetic Variation 5.823° E

METAR

LBBG 261500Z 36021KT 3000 RA SCT020 SCT030 OVC040 06/04 Q1003 NOSIG

Decode

TAF

TAF TAF LBBG 261100Z 2612/2712 35014KT 9999 SCT030 BKN040 BECMG 2613/2615 5000 RA SCT015 OVC025 BECMG 2620/2622 3000 RASN BKN010 OVC020 BECMG 2701/2703 35020G30KT 1500 SN BKN006 OVC015

Decode

Departure Runways

ID Width Length Bearing (true/mag) Surface Threshold Overrun Markings Lighting
04 148 ft / 45 m 10,509 ft / 3,203 m 44.26° / 38.44° CONCRETE 0 ft / 0 m 0 ft / 0 m PREC-APP CENTERLINE EDGE THRESHOLD ALSF-I
22 148 ft / 45 m 10,509 ft / 3,203 m 224.28° / 218.46° CONCRETE 0 ft / 0 m 0 ft / 0 m PREC-APP CENTERLINE EDGE THRESHOLD ALSF-II TDZ

LBWN

Details ICAO LBWN (VAR)
Name Varna Airport
Region Bulgaria
Timezone Europe/Sofia (UTC+2.0)
Stats Elevation 229 ft / 70 m (AMSL)
Location 43.232000° 27.825300°
Runways 1
Magnetic Variation 5.970° E

METAR

LBWN 261500Z 33015KT 310V010 9999 -RA SCT015 OVC036 04/02 Q1004 NOSIG

Decode

TAF

TAF LBWN 261100Z 2612/2712 33014KT 9999 SCT030 BKN045 BECMG 2614/2616 5000 RA SCT015 OVC025 BECMG 2619/2621 3000 RASN BKN010 OVC020 BECMG 2623/2701 01020G30KT 2000 SN BKN006 OVC015 BECMG 2708/2710 8000 NSW BKN030

Decode

Destination Runways

ID Width Length Bearing (true/mag) Surface Threshold Overrun Markings Lighting
09 148 ft / 45 m 8,443 ft / 2,573 m 96.95° / 90.98° ASPHALT 98 ft / 30 m 0 ft / 0 m PREC-APP CENTERLINE EDGE THRESHOLD REIL-OMNI
27 148 ft / 45 m 8,443 ft / 2,573 m 276.97° / 271.00° ASPHALT 112 ft / 34 m 0 ft / 0 m PREC-APP CENTERLINE EDGE THRESHOLD REIL-OMNI

Approach Navaids

Runway Type Ident Frequency Range Bearing (true/mag) Slope Elevation
09 MM MM - - 97.12° / 91.15 ° - 230 ft / 70 m (AMSL)
09 LOC-ILS IWN 109.90 MHz 18 nm / 33 km 96.96° / 90.99 ° - 229 ft / 70 m (AMSL)
09 GS IWN 109.90 MHz 10 nm / 19 km 96.96° / 90.99 ° 3.00° 229 ft / 70 m (AMSL)
09 OM OM - - 97.12° / 91.15 ° - 230 ft / 70 m (AMSL)

Popular Alternatives